Ester, AK (99725)

9:50 PM AKST on February 13, 2016 (GMT -0900)
EsterOldRidgeTrl | | Change Station
CLOSE
Current Station
Personal Weather Station
Location: Fairbanks, AK
Elevation: 1200 ft
Nearby Weather Stations

Elev 1200 ft 64.83 °N, 148.18 °W | Updated 11 minutes ago

Mostly Cloudy
Mostly Cloudy
21.6 °F
Feels Like 22 °F
N
2.7
Wind Variable Wind from SSW

Today
High -- | Low -- °F
--% Chance of Precip.
Yesterday
High -- | Low -- °F
Precip. -- in
Pressure 29.55 in
Visibility 10.0 miles
Clouds Few 7000 ft
Scattered Clouds 9000 ft
Mostly Cloudy 12000 ft
Windchill 22 °F
Dew Point 19 °F
Humidity 88%
Rainfall 0.00 in
Snow Depth Not available.
9:00 AM 5:15 PM
Waxing Crescent, 38% visible
METAR PAFA 140553Z 00000KT 10SM FEW070 SCT090 BKN120 M14/M16 A2950 RMK AO2 SLP004 T11391156 11061 21144 52014 $
Pressure 29.55 in
Visibility 10.0 miles
Clouds Few 7000 ft
Scattered Clouds 9000 ft
Mostly Cloudy 12000 ft
Windchill 22 °F
Dew Point 19 °F
Humidity 88%
Rainfall 0.00 in
Snow Depth Not available.
9:00 AM 5:15 PM
Waxing Crescent, 38% visible
METAR PAFA 140553Z 00000KT 10SM FEW070 SCT090 BKN120 M14/M16 A2950 RMK AO2 SLP004 T11391156 11061 21144 52014 $

10-Day Weather Forecast

Almanac

Astronomy

Feb. 13, 2016 Rise Set
Actual Time
Civil Twilight
Nautical Twilight
Astronomical Twilight
Moon
Length of Visible Light
Length of Day
Tomorrow will be .
, % of the Moon is Illuminated

Today's Extremes

State Highs State Lows

Community

WunderPhotos

Upload Photos

1,892,757 photos uploaded!

WunderBlog® & News

Nearby

Air Quality

  Air Quality AQ Index Pollutant
Not available.

Snow Depth

Station Depth Elevation

Earthquake Activity

City Distance Mag. Time & Date
Minimum magnitude displayed is 2.5.

Coastal Water Temperatures

Place Temperature

Stations

Nearby Weather Stations

Station Location Temp. Windchill Dew Point Humidity Wind Precip. Elev Updated Type
                   

Watches & Warnings

There are currently no watches in effect.